createdAt,value
2023-03-29T00:00:19.368Z,5.35
2023-03-29T00:04:02.687Z,8.60
2023-03-29T00:07:45.739Z,8.50
2023-03-29T00:11:27.978Z,9.82
2023-03-29T00:15:10.130Z,6.00
2023-03-29T00:18:52.070Z,9.70
2023-03-29T00:22:34.478Z,6.45
2023-03-29T00:26:16.541Z,6.82
2023-03-29T00:29:58.398Z,7.65
2023-03-29T00:33:41.479Z,6.03
2023-03-29T00:37:30.086Z,5.55
2023-03-29T00:41:12.025Z,7.47
2023-03-29T00:45:27.686Z,7.28
2023-03-29T00:49:14.036Z,7.72
2023-03-29T00:53:15.724Z,7.15
2023-03-29T00:56:58.197Z,8.45
2023-03-29T01:00:52.233Z,7.10
2023-03-29T01:04:34.183Z,9.13
2023-03-29T01:08:30.680Z,7.38
2023-03-29T01:12:17.286Z,10.15
2023-03-29T01:15:59.465Z,7.55
2023-03-29T01:19:50.881Z,6.78
2023-03-29T01:23:59.313Z,7.43
2023-03-29T01:27:55.398Z,5.53
2023-03-29T01:31:42.094Z,7.32
2023-03-29T01:35:45.868Z,6.10
2023-03-29T01:39:27.849Z,6.15
2023-03-29T01:43:21.494Z,7.05
2023-03-29T01:47:13.450Z,5.90
2023-03-29T01:51:09.813Z,6.90
2023-03-29T01:55:18.564Z,6.75
2023-03-29T01:59:11.310Z,6.07
2023-03-29T02:02:59.339Z,4.60
2023-03-29T02:06:42.903Z,5.97
2023-03-29T02:10:25.803Z,5.47
2023-03-29T02:14:07.737Z,6.32
2023-03-29T02:17:51.108Z,4.40
2023-03-29T02:21:53.519Z,5.45
2023-03-29T02:25:37.397Z,3.65
2023-03-29T02:29:19.855Z,4.70
2023-03-29T02:33:12.352Z,3.60
2023-03-29T02:36:58.981Z,4.50
2023-03-29T02:40:42.877Z,4.03
2023-03-29T02:44:28.256Z,3.28
2023-03-29T02:48:14.759Z,3.35
2023-03-29T02:52:06.798Z,4.45
2023-03-29T02:55:49.117Z,4.28
2023-03-29T02:59:31.133Z,3.65
2023-03-29T03:03:15.681Z,5.03
2023-03-29T03:06:58.135Z,4.28
2023-03-29T03:10:40.044Z,3.97
2023-03-29T03:14:22.901Z,4.85
2023-03-29T03:18:05.223Z,4.43
2023-03-29T03:21:47.257Z,5.47
2023-03-29T03:25:29.787Z,3.85
2023-03-29T03:29:12.752Z,3.53
2023-03-29T03:32:55.446Z,5.28
2023-03-29T03:36:38.015Z,3.92
2023-03-29T03:40:20.920Z,4.82
2023-03-29T03:44:02.907Z,4.90
2023-03-29T03:47:44.844Z,5.75
2023-03-29T03:51:27.178Z,4.97
2023-03-29T03:55:09.445Z,4.60
2023-03-29T03:58:51.731Z,4.53
2023-03-29T04:02:33.698Z,4.22
2023-03-29T04:06:16.106Z,4.28
2023-03-29T04:09:57.955Z,5.43
2023-03-29T04:13:40.814Z,5.65
2023-03-29T04:17:22.840Z,4.38
2023-03-29T04:21:05.090Z,4.18
2023-03-29T04:24:46.966Z,3.42
2023-03-29T04:28:28.881Z,4.22
2023-03-29T04:32:12.768Z,6.10
2023-03-29T04:35:54.776Z,6.57
2023-03-29T04:39:37.855Z,4.72
2023-03-29T04:43:20.302Z,5.13
2023-03-29T04:47:02.208Z,4.30
2023-03-29T04:50:47.511Z,4.82
2023-03-29T04:54:29.403Z,4.38
2023-03-29T04:58:11.672Z,6.30
2023-03-29T05:01:54.844Z,4.72
2023-03-29T05:05:37.146Z,5.05
2023-03-29T05:09:19.632Z,4.03
2023-03-29T05:13:04.075Z,5.22
2023-03-29T05:16:46.312Z,4.55
2023-03-29T05:20:28.624Z,5.47
2023-03-29T05:24:11.010Z,6.78
2023-03-29T05:27:53.176Z,5.97
2023-03-29T05:31:37.027Z,6.45
2023-03-29T05:35:19.105Z,7.22
2023-03-29T05:39:01.990Z,6.38
2023-03-29T05:42:43.872Z,6.38
2023-03-29T05:46:25.827Z,5.68
2023-03-29T05:50:09.777Z,5.50
2023-03-29T05:53:52.139Z,5.43
2023-03-29T05:57:39.833Z,5.75
2023-03-29T06:01:22.630Z,5.50
2023-03-29T06:05:04.808Z,5.63
2023-03-29T06:08:46.790Z,6.10
2023-03-29T06:12:28.743Z,7.57
2023-03-29T06:16:11.273Z,6.85
2023-03-29T06:19:53.573Z,5.57
2023-03-29T06:23:36.499Z,4.00
2023-03-29T06:27:19.296Z,4.32
2023-03-29T06:31:02.919Z,5.22
2023-03-29T06:34:46.135Z,4.97
2023-03-29T06:38:28.696Z,3.80
2023-03-29T06:42:20.682Z,4.43
2023-03-29T06:46:04.355Z,4.15
2023-03-29T06:49:46.303Z,4.22
2023-03-29T06:53:28.227Z,1.50
2023-03-29T06:57:10.514Z,2.13
2023-03-29T07:00:53.914Z,2.88
2023-03-29T07:04:36.046Z,1.60
2023-03-29T07:08:18.899Z,0.77
2023-03-29T07:12:01.461Z,1.33
2023-03-29T07:15:44.037Z,1.15
2023-03-29T07:19:27.440Z,0.68
2023-03-29T07:23:10.466Z,1.08
2023-03-29T07:27:03.405Z,1.13
2023-03-29T07:30:46.829Z,0.43
2023-03-29T07:34:30.094Z,0.38
2023-03-29T07:38:12.090Z,0.43
2023-03-29T07:41:56.896Z,0.47
2023-03-29T07:45:42.334Z,1.33
2023-03-29T07:49:24.952Z,1.05
2023-03-29T07:53:07.319Z,0.70
2023-03-29T07:56:49.841Z,0.77
2023-03-29T08:00:33.174Z,1.25
2023-03-29T08:04:15.494Z,0.85
2023-03-29T08:07:57.416Z,1.52
2023-03-29T08:11:40.048Z,1.38
2023-03-29T08:15:21.954Z,0.73
2023-03-29T08:19:03.949Z,0.63
2023-03-29T08:22:45.981Z,0.73
2023-03-29T08:26:27.926Z,1.02
2023-03-29T08:30:10.806Z,1.15
2023-03-29T08:33:53.334Z,0.90
2023-03-29T08:37:36.295Z,1.00
2023-03-29T08:41:27.486Z,0.70
2023-03-29T08:45:25.519Z,0.80
2023-03-29T08:49:09.300Z,1.60
2023-03-29T08:52:57.664Z,1.98
2023-03-29T08:56:41.694Z,1.95
2023-03-29T09:00:40.298Z,2.38
2023-03-29T09:04:42.681Z,3.58
2023-03-29T09:08:25.631Z,4.75
2023-03-29T09:12:16.772Z,3.92
2023-03-29T09:16:33.819Z,5.72
2023-03-29T09:20:21.858Z,4.60
2023-03-29T09:24:10.179Z,3.60
2023-03-29T09:28:04.925Z,4.53
2023-03-29T09:31:48.266Z,4.35
2023-03-29T09:35:45.063Z,3.40
2023-03-29T09:39:28.854Z,2.75
2023-03-29T09:43:14.793Z,2.78
2023-03-29T09:47:02.883Z,3.53
2023-03-29T09:50:47.566Z,2.90
2023-03-29T09:54:29.506Z,2.35
2023-03-29T09:58:22.491Z,2.83
2023-03-29T10:02:13.642Z,3.33
2023-03-29T10:05:58.786Z,2.45
2023-03-29T10:09:44.768Z,3.95
2023-03-29T10:13:33.063Z,3.03
2023-03-29T10:17:28.288Z,3.65
2023-03-29T10:21:15.830Z,2.83
2023-03-29T10:24:58.336Z,4.22
2023-03-29T10:28:40.724Z,3.20
2023-03-29T10:32:24.117Z,5.00
2023-03-29T10:36:07.835Z,4.20
2023-03-29T10:39:50.527Z,4.28
2023-03-29T10:43:38.637Z,5.05
2023-03-29T10:47:21.561Z,3.78
2023-03-29T10:51:06.197Z,3.58
2023-03-29T10:54:50.318Z,5.20
2023-03-29T10:59:17.388Z,4.13
2023-03-29T11:03:12.040Z,6.82
2023-03-29T11:07:17.460Z,7.47
2023-03-29T11:11:08.856Z,5.15
2023-03-29T11:14:59.689Z,4.10
2023-03-29T11:18:47.742Z,5.40
2023-03-29T11:23:03.801Z,4.53
2023-03-29T11:26:45.839Z,3.45
2023-03-29T11:31:03.284Z,4.38
2023-03-29T11:34:48.505Z,3.60
2023-03-29T11:38:45.214Z,4.00
2023-03-29T11:42:32.249Z,4.63
2023-03-29T11:46:45.464Z,3.63
2023-03-29T11:50:45.028Z,3.92
2023-03-29T11:54:34.560Z,4.47
2023-03-29T11:58:26.388Z,4.77
2023-03-29T12:02:15.457Z,8.63
2023-03-29T12:06:04.963Z,4.65
2023-03-29T12:09:56.350Z,7.50
2023-03-29T12:13:47.800Z,8.70
2023-03-29T12:18:11.322Z,6.50
2023-03-29T12:21:56.127Z,9.10
2023-03-29T12:26:02.511Z,6.35
2023-03-29T12:30:02.586Z,7.40
2023-03-29T12:34:03.999Z,5.00
2023-03-29T12:38:24.188Z,5.32
2023-03-29T12:42:26.400Z,4.90
2023-03-29T12:46:09.404Z,5.28
2023-03-29T12:50:00.332Z,5.15
2023-03-29T12:53:55.641Z,6.28
2023-03-29T12:58:00.695Z,5.15
2023-03-29T13:02:00.326Z,3.80
2023-03-29T13:05:44.478Z,4.53
2023-03-29T13:09:48.984Z,5.72
2023-03-29T13:13:39.213Z,4.25
2023-03-29T13:17:45.958Z,5.10
2023-03-29T13:21:34.169Z,5.57
2023-03-29T13:25:28.529Z,3.22
2023-03-29T13:29:34.444Z,6.40
2023-03-29T13:33:26.528Z,3.42
2023-03-29T13:37:44.364Z,5.00
2023-03-29T13:41:38.482Z,5.38
2023-03-29T13:45:26.013Z,4.38
2023-03-29T13:49:27.233Z,4.30
2023-03-29T13:53:45.900Z,4.55
2023-03-29T13:57:49.583Z,3.53
2023-03-29T14:01:39.878Z,3.05
2023-03-29T14:05:28.423Z,3.10
2023-03-29T14:09:14.423Z,4.03
2023-03-29T14:12:57.520Z,3.10
2023-03-29T14:16:41.282Z,2.45
2023-03-29T14:20:24.008Z,3.70
2023-03-29T14:24:12.957Z,4.20
2023-03-29T14:27:55.007Z,4.00
2023-03-29T14:31:40.145Z,3.95
2023-03-29T14:35:29.645Z,4.93
2023-03-29T14:39:18.636Z,4.30
2023-03-29T14:43:06.728Z,6.05
2023-03-29T14:46:48.898Z,6.88
2023-03-29T14:50:31.672Z,5.80
2023-03-29T14:54:34.410Z,6.55
2023-03-29T14:58:31.085Z,7.15
2023-03-29T15:02:28.024Z,10.02
2023-03-29T15:06:11.883Z,9.27
2023-03-29T15:09:55.344Z,6.95
2023-03-29T15:13:42.080Z,6.95
2023-03-29T15:17:46.886Z,8.32
2023-03-29T15:21:35.718Z,11.40
2023-03-29T15:25:19.398Z,9.50
2023-03-29T15:29:03.115Z,7.32
2023-03-29T15:32:45.460Z,9.73
2023-03-29T15:36:27.460Z,9.00
2023-03-29T15:40:18.657Z,8.57
2023-03-29T15:44:02.353Z,8.75
2023-03-29T15:47:44.625Z,6.88
2023-03-29T15:51:26.766Z,7.13
2023-03-29T15:55:09.549Z,5.85
2023-03-29T15:58:51.530Z,6.18
2023-03-29T16:02:34.307Z,5.40
2023-03-29T16:06:22.315Z,7.35
2023-03-29T16:10:04.537Z,6.60
2023-03-29T16:13:46.550Z,6.97
2023-03-29T16:17:28.481Z,7.72
2023-03-29T16:21:14.319Z,5.80
2023-03-29T16:24:56.541Z,4.70
2023-03-29T16:28:45.810Z,6.43
2023-03-29T16:32:27.871Z,8.10
2023-03-29T16:36:10.790Z,6.20
2023-03-29T16:39:52.658Z,5.40
2023-03-29T16:43:35.461Z,8.52
2023-03-29T16:47:17.358Z,6.07
2023-03-29T16:50:59.467Z,7.07
2023-03-29T16:54:42.370Z,5.25
2023-03-29T16:58:24.807Z,4.55
2023-03-29T17:02:06.885Z,4.00
2023-03-29T17:05:50.385Z,5.07
2023-03-29T17:09:32.313Z,3.03
2023-03-29T17:13:14.327Z,2.90
2023-03-29T17:16:56.284Z,2.28
2023-03-29T17:20:41.271Z,2.50
2023-03-29T17:24:23.195Z,2.15
2023-03-29T17:28:05.138Z,2.53
2023-03-29T17:31:47.956Z,4.72
2023-03-29T17:35:30.335Z,2.42
2023-03-29T17:39:15.386Z,2.70
2023-03-29T17:42:57.338Z,4.25
2023-03-29T17:46:39.459Z,2.70
2023-03-29T17:50:21.731Z,1.83
2023-03-29T17:54:04.036Z,2.78
2023-03-29T17:57:45.945Z,3.15
2023-03-29T18:01:28.226Z,3.15
2023-03-29T18:05:10.784Z,1.33
2023-03-29T18:08:53.370Z,2.42
2023-03-29T18:12:35.381Z,3.47
2023-03-29T18:16:17.951Z,3.38
2023-03-29T18:19:59.935Z,2.10
2023-03-29T18:23:45.560Z,3.15
2023-03-29T18:27:27.462Z,2.30
2023-03-29T18:31:10.101Z,1.98
2023-03-29T18:34:52.058Z,3.70
2023-03-29T18:38:40.507Z,2.70
2023-03-29T18:42:22.780Z,4.03
2023-03-29T18:46:05.197Z,3.58
2023-03-29T18:49:47.335Z,5.13
2023-03-29T18:53:29.246Z,5.53
2023-03-29T18:57:11.353Z,4.90
2023-03-29T19:00:53.410Z,5.70
2023-03-29T19:04:35.308Z,6.63
2023-03-29T19:08:17.198Z,4.78
2023-03-29T19:11:59.137Z,6.35
2023-03-29T19:15:41.226Z,7.18
2023-03-29T19:19:26.388Z,8.48
2023-03-29T19:23:08.365Z,6.38
2023-03-29T19:26:52.125Z,7.90
2023-03-29T19:30:36.022Z,8.68
2023-03-29T19:34:21.177Z,7.78
2023-03-29T19:38:03.206Z,9.20
2023-03-29T19:41:45.158Z,8.63
2023-03-29T19:45:27.981Z,9.30
2023-03-29T19:49:13.620Z,10.27
2023-03-29T19:52:57.188Z,11.32
2023-03-29T19:56:39.413Z,12.98
2023-03-29T20:00:25.112Z,11.88
2023-03-29T20:04:07.799Z,7.53
2023-03-29T20:07:50.078Z,11.38
2023-03-29T20:11:31.978Z,9.52
2023-03-29T20:15:14.336Z,10.65
2023-03-29T20:18:56.406Z,10.00
2023-03-29T20:22:42.266Z,8.80
2023-03-29T20:26:24.323Z,8.20
2023-03-29T20:30:07.201Z,6.35
2023-03-29T20:33:49.332Z,10.45
2023-03-29T20:37:31.708Z,9.93
2023-03-29T20:41:13.940Z,8.55
2023-03-29T20:44:56.416Z,8.18
2023-03-29T20:48:38.356Z,6.38
2023-03-29T20:52:22.173Z,8.13
2023-03-29T20:56:06.533Z,12.25
2023-03-29T20:59:49.395Z,8.55
2023-03-29T21:03:31.476Z,12.70
2023-03-29T21:07:17.151Z,12.00
2023-03-29T21:10:59.066Z,11.32
2023-03-29T21:14:40.973Z,13.35
2023-03-29T21:18:23.607Z,10.20
2023-03-29T21:22:05.903Z,14.13
2023-03-29T21:25:47.808Z,11.70
2023-03-29T21:29:29.779Z,15.48
2023-03-29T21:33:11.722Z,12.50
2023-03-29T21:36:53.714Z,13.27
2023-03-29T21:40:39.125Z,11.60
2023-03-29T21:44:21.103Z,15.55
2023-03-29T21:48:03.031Z,12.45
2023-03-29T21:51:45.008Z,15.25
2023-03-29T21:55:26.999Z,14.38
2023-03-29T21:59:08.918Z,11.73
2023-03-29T22:02:51.744Z,14.25
2023-03-29T22:06:33.696Z,13.63
2023-03-29T22:10:15.682Z,11.90
2023-03-29T22:13:57.605Z,12.68
2023-03-29T22:17:41.414Z,15.77
2023-03-29T22:21:26.725Z,18.10
2023-03-29T22:25:09.531Z,11.23
2023-03-29T22:28:51.730Z,12.52
2023-03-29T22:32:33.667Z,15.18
2023-03-29T22:36:21.547Z,13.63
2023-03-29T22:40:04.420Z,13.57
2023-03-29T22:43:46.906Z,12.52
2023-03-29T22:47:28.918Z,15.52
2023-03-29T22:51:11.539Z,17.77
2023-03-29T22:54:53.465Z,16.75
2023-03-29T22:58:37.047Z,14.90
2023-03-29T23:02:18.981Z,13.43
2023-03-29T23:06:04.789Z,16.52
2023-03-29T23:09:46.762Z,15.93
2023-03-29T23:13:31.404Z,16.48
2023-03-29T23:17:13.538Z,13.48
2023-03-29T23:20:57.250Z,17.92
2023-03-29T23:24:40.300Z,18.65
2023-03-29T23:28:24.972Z,19.33
2023-03-29T23:32:06.991Z,14.25
2023-03-29T23:35:48.910Z,17.52
2023-03-29T23:39:31.002Z,19.33
2023-03-29T23:43:13.628Z,16.58
2023-03-29T23:46:55.571Z,18.75
2023-03-29T23:50:37.540Z,13.60
2023-03-29T23:54:19.514Z,15.18
2023-03-29T23:58:01.610Z,16.60
